sensor_id;sensor_type;location;lat;lon;timestamp;P1;durP1;ratioP1;P2;durP2;ratioP2
50337;SDS011;46221;51.178;5.900;2022-08-05T00:00:46;3.17;;;1.55;;
50337;SDS011;46221;51.178;5.900;2022-08-05T00:03:15;4.57;;;1.80;;
50337;SDS011;46221;51.178;5.900;2022-08-05T00:05:41;4.07;;;2.03;;
50337;SDS011;46221;51.178;5.900;2022-08-05T00:08:28;5.60;;;1.75;;
50337;SDS011;46221;51.178;5.900;2022-08-05T00:11:04;4.07;;;1.55;;
50337;SDS011;46221;51.178;5.900;2022-08-05T00:13:49;4.47;;;2.00;;
50337;SDS011;46221;51.178;5.900;2022-08-05T00:16:18;4.82;;;1.90;;
50337;SDS011;46221;51.178;5.900;2022-08-05T00:19:01;3.40;;;2.00;;
50337;SDS011;46221;51.178;5.900;2022-08-05T00:21:28;4.43;;;2.20;;
50337;SDS011;46221;51.178;5.900;2022-08-05T00:23:55;3.80;;;2.00;;
50337;SDS011;46221;51.178;5.900;2022-08-05T00:26:36;4.18;;;1.90;;
50337;SDS011;46221;51.178;5.900;2022-08-05T00:29:03;4.55;;;2.30;;
50337;SDS011;46221;51.178;5.900;2022-08-05T00:31:29;4.43;;;1.92;;
50337;SDS011;46221;51.178;5.900;2022-08-05T00:34:15;4.28;;;2.22;;
50337;SDS011;46221;51.178;5.900;2022-08-05T00:37:02;3.70;;;1.55;;
50337;SDS011;46221;51.178;5.900;2022-08-05T00:39:39;2.90;;;1.85;;
50337;SDS011;46221;51.178;5.900;2022-08-05T00:42:34;4.38;;;2.15;;
50337;SDS011;46221;51.178;5.900;2022-08-05T00:45:02;3.05;;;1.92;;
50337;SDS011;46221;51.178;5.900;2022-08-05T00:47:29;3.78;;;2.45;;
50337;SDS011;46221;51.178;5.900;2022-08-05T00:50:15;3.45;;;1.83;;
50337;SDS011;46221;51.178;5.900;2022-08-05T00:52:42;4.20;;;1.85;;
50337;SDS011;46221;51.178;5.900;2022-08-05T00:55:11;6.45;;;2.28;;
50337;SDS011;46221;51.178;5.900;2022-08-05T00:57:39;4.90;;;2.42;;
50337;SDS011;46221;51.178;5.900;2022-08-05T01:00:24;3.90;;;1.88;;
50337;SDS011;46221;51.178;5.900;2022-08-05T01:02:51;4.70;;;2.10;;
50337;SDS011;46221;51.178;5.900;2022-08-05T01:05:18;4.53;;;2.00;;
50337;SDS011;46221;51.178;5.900;2022-08-05T01:07:44;3.67;;;1.80;;
50337;SDS011;46221;51.178;5.900;2022-08-05T01:10:34;3.88;;;2.20;;
50337;SDS011;46221;51.178;5.900;2022-08-05T01:13:03;4.93;;;2.40;;
50337;SDS011;46221;51.178;5.900;2022-08-05T01:15:46;3.67;;;1.70;;
50337;SDS011;46221;51.178;5.900;2022-08-05T01:18:14;4.30;;;2.05;;
50337;SDS011;46221;51.178;5.900;2022-08-05T01:20:53;3.33;;;1.70;;
50337;SDS011;46221;51.178;5.900;2022-08-05T01:23:31;2.50;;;1.65;;
50337;SDS011;46221;51.178;5.900;2022-08-05T01:26:15;5.10;;;1.92;;
50337;SDS011;46221;51.178;5.900;2022-08-05T01:36:43;7.35;;;2.40;;
50337;SDS011;46221;51.178;5.900;2022-08-05T01:39:12;3.33;;;1.70;;
50337;SDS011;46221;51.178;5.900;2022-08-05T01:42:00;4.07;;;1.90;;
50337;SDS011;46221;51.178;5.900;2022-08-05T01:44:28;3.85;;;2.05;;
50337;SDS011;46221;51.178;5.900;2022-08-05T01:47:00;3.85;;;1.90;;
50337;SDS011;46221;51.178;5.900;2022-08-05T01:49:30;4.40;;;1.95;;
50337;SDS011;46221;51.178;5.900;2022-08-05T01:52:18;3.30;;;2.00;;
50337;SDS011;46221;51.178;5.900;2022-08-05T01:54:51;4.45;;;2.35;;
50337;SDS011;46221;51.178;5.900;2022-08-05T01:57:22;4.63;;;1.80;;
50337;SDS011;46221;51.178;5.900;2022-08-05T02:00:09;3.17;;;2.15;;
50337;SDS011;46221;51.178;5.900;2022-08-05T02:02:38;3.40;;;1.75;;
50337;SDS011;46221;51.178;5.900;2022-08-05T02:05:16;3.33;;;1.70;;
50337;SDS011;46221;51.178;5.900;2022-08-05T02:07:48;4.82;;;1.80;;
50337;SDS011;46221;51.178;5.900;2022-08-05T02:10:27;3.85;;;1.80;;
50337;SDS011;46221;51.178;5.900;2022-08-05T02:12:55;6.90;;;1.98;;
50337;SDS011;46221;51.178;5.900;2022-08-05T02:15:25;3.33;;;2.15;;
50337;SDS011;46221;51.178;5.900;2022-08-05T02:18:01;5.93;;;1.70;;
50337;SDS011;46221;51.178;5.900;2022-08-05T02:20:51;4.45;;;2.10;;
50337;SDS011;46221;51.178;5.900;2022-08-05T02:23:25;4.87;;;2.27;;
50337;SDS011;46221;51.178;5.900;2022-08-05T02:25:59;4.85;;;2.80;;
50337;SDS011;46221;51.178;5.900;2022-08-05T02:28:28;4.15;;;2.60;;
50337;SDS011;46221;51.178;5.900;2022-08-05T02:31:04;5.07;;;2.47;;
50337;SDS011;46221;51.178;5.900;2022-08-05T02:33:41;5.20;;;2.38;;
50337;SDS011;46221;51.178;5.900;2022-08-05T02:36:09;6.32;;;2.30;;
50337;SDS011;46221;51.178;5.900;2022-08-05T02:38:40;3.67;;;2.00;;
50337;SDS011;46221;51.178;5.900;2022-08-05T02:41:08;4.07;;;1.77;;
50337;SDS011;46221;51.178;5.900;2022-08-05T02:43:43;5.47;;;1.90;;
50337;SDS011;46221;51.178;5.900;2022-08-05T02:46:31;4.68;;;1.90;;
50337;SDS011;46221;51.178;5.900;2022-08-05T02:48:59;5.18;;;1.92;;
50337;SDS011;46221;51.178;5.900;2022-08-05T02:51:26;3.55;;;1.75;;
50337;SDS011;46221;51.178;5.900;2022-08-05T02:54:12;3.33;;;1.90;;
50337;SDS011;46221;51.178;5.900;2022-08-05T02:56:59;4.55;;;1.98;;
50337;SDS011;46221;51.178;5.900;2022-08-05T02:59:27;2.90;;;2.00;;
50337;SDS011;46221;51.178;5.900;2022-08-05T03:01:53;4.78;;;2.17;;
50337;SDS011;46221;51.178;5.900;2022-08-05T03:04:25;4.25;;;2.10;;
50337;SDS011;46221;51.178;5.900;2022-08-05T03:06:52;2.55;;;1.52;;
50337;SDS011;46221;51.178;5.900;2022-08-05T03:09:25;5.95;;;1.80;;
50337;SDS011;46221;51.178;5.900;2022-08-05T03:12:03;3.42;;;1.70;;
50337;SDS011;46221;51.178;5.900;2022-08-05T03:14:29;3.65;;;1.75;;
50337;SDS011;46221;51.178;5.900;2022-08-05T03:16:55;4.10;;;1.98;;
50337;SDS011;46221;51.178;5.900;2022-08-05T03:19:24;3.38;;;1.77;;
50337;SDS011;46221;51.178;5.900;2022-08-05T03:22:01;5.78;;;2.35;;
50337;SDS011;46221;51.178;5.900;2022-08-05T03:24:29;4.28;;;2.40;;
50337;SDS011;46221;51.178;5.900;2022-08-05T03:26:57;5.93;;;2.22;;
50337;SDS011;46221;51.178;5.900;2022-08-05T03:29:23;5.18;;;2.00;;
50337;SDS011;46221;51.178;5.900;2022-08-05T03:32:10;3.55;;;2.03;;
50337;SDS011;46221;51.178;5.900;2022-08-05T03:34:39;4.00;;;2.20;;
50337;SDS011;46221;51.178;5.900;2022-08-05T03:37:05;3.40;;;1.95;;
50337;SDS011;46221;51.178;5.900;2022-08-05T03:39:32;5.35;;;1.90;;
50337;SDS011;46221;51.178;5.900;2022-08-05T03:42:12;3.08;;;1.98;;
50337;SDS011;46221;51.178;5.900;2022-08-05T03:44:41;4.32;;;1.88;;
50337;SDS011;46221;51.178;5.900;2022-08-05T03:47:07;5.57;;;2.10;;
50337;SDS011;46221;51.178;5.900;2022-08-05T03:49:38;3.95;;;1.80;;
50337;SDS011;46221;51.178;5.900;2022-08-05T03:52:18;5.20;;;1.98;;
50337;SDS011;46221;51.178;5.900;2022-08-05T03:55:07;2.63;;;1.55;;
50337;SDS011;46221;51.178;5.900;2022-08-05T03:57:55;2.88;;;1.75;;
50337;SDS011;46221;51.178;5.900;2022-08-05T04:00:23;4.47;;;2.10;;
50337;SDS011;46221;51.178;5.900;2022-08-05T04:02:57;5.05;;;2.40;;
50337;SDS011;46221;51.178;5.900;2022-08-05T04:05:33;5.50;;;2.80;;
50337;SDS011;46221;51.178;5.900;2022-08-05T04:08:04;3.78;;;2.67;;
50337;SDS011;46221;51.178;5.900;2022-08-05T04:10:51;5.13;;;2.70;;
50337;SDS011;46221;51.178;5.900;2022-08-05T04:13:17;4.43;;;2.45;;
50337;SDS011;46221;51.178;5.900;2022-08-05T04:15:46;3.30;;;2.17;;
50337;SDS011;46221;51.178;5.900;2022-08-05T04:18:28;4.05;;;2.28;;
50337;SDS011;46221;51.178;5.900;2022-08-05T04:20:55;4.82;;;2.38;;
50337;SDS011;46221;51.178;5.900;2022-08-05T04:23:23;3.83;;;2.40;;
50337;SDS011;46221;51.178;5.900;2022-08-05T04:26:09;4.63;;;2.40;;
50337;SDS011;46221;51.178;5.900;2022-08-05T04:28:38;3.75;;;2.38;;
50337;SDS011;46221;51.178;5.900;2022-08-05T04:31:16;3.20;;;2.13;;
50337;SDS011;46221;51.178;5.900;2022-08-05T04:33:43;5.10;;;2.10;;
50337;SDS011;46221;51.178;5.900;2022-08-05T04:36:30;4.75;;;2.20;;
50337;SDS011;46221;51.178;5.900;2022-08-05T04:39:11;4.22;;;2.63;;
50337;SDS011;46221;51.178;5.900;2022-08-05T04:41:38;4.40;;;2.85;;
50337;SDS011;46221;51.178;5.900;2022-08-05T04:44:06;4.80;;;2.30;;
50337;SDS011;46221;51.178;5.900;2022-08-05T04:46:34;4.63;;;2.83;;
50337;SDS011;46221;51.178;5.900;2022-08-05T04:49:01;6.13;;;3.47;;
50337;SDS011;46221;51.178;5.900;2022-08-05T04:51:27;5.18;;;3.22;;
50337;SDS011;46221;51.178;5.900;2022-08-05T04:53:55;4.35;;;3.05;;
50337;SDS011;46221;51.178;5.900;2022-08-05T04:56:22;6.40;;;3.10;;
50337;SDS011;46221;51.178;5.900;2022-08-05T04:59:02;5.00;;;2.88;;
50337;SDS011;46221;51.178;5.900;2022-08-05T05:01:48;5.90;;;3.28;;
50337;SDS011;46221;51.178;5.900;2022-08-05T05:04:35;4.72;;;2.85;;
50337;SDS011;46221;51.178;5.900;2022-08-05T05:07:03;3.35;;;2.45;;
50337;SDS011;46221;51.178;5.900;2022-08-05T05:09:34;5.80;;;2.80;;
50337;SDS011;46221;51.178;5.900;2022-08-05T05:12:02;4.10;;;2.50;;
50337;SDS011;46221;51.178;5.900;2022-08-05T05:14:29;5.75;;;2.67;;
50337;SDS011;46221;51.178;5.900;2022-08-05T05:16:58;4.00;;;2.28;;
50337;SDS011;46221;51.178;5.900;2022-08-05T05:19:25;4.72;;;2.72;;
50337;SDS011;46221;51.178;5.900;2022-08-05T05:22:01;5.03;;;3.03;;
50337;SDS011;46221;51.178;5.900;2022-08-05T05:24:48;4.13;;;2.38;;
50337;SDS011;46221;51.178;5.900;2022-08-05T05:27:24;3.97;;;2.38;;
50337;SDS011;46221;51.178;5.900;2022-08-05T05:30:11;4.88;;;2.58;;
50337;SDS011;46221;51.178;5.900;2022-08-05T05:32:55;4.78;;;2.35;;
50337;SDS011;46221;51.178;5.900;2022-08-05T05:35:21;3.75;;;2.40;;
50337;SDS011;46221;51.178;5.900;2022-08-05T05:40:26;2.85;;;1.83;;
50337;SDS011;46221;51.178;5.900;2022-08-05T05:42:53;2.72;;;1.85;;
50337;SDS011;46221;51.178;5.900;2022-08-05T05:45:21;3.83;;;1.70;;
50337;SDS011;46221;51.178;5.900;2022-08-05T05:47:49;3.47;;;1.90;;
50337;SDS011;46221;51.178;5.900;2022-08-05T05:50:33;4.93;;;2.22;;
50337;SDS011;46221;51.178;5.900;2022-08-05T05:53:08;5.00;;;2.03;;
50337;SDS011;46221;51.178;5.900;2022-08-05T05:55:48;4.35;;;1.80;;
50337;SDS011;46221;51.178;5.900;2022-08-05T05:58:25;4.85;;;1.70;;
50337;SDS011;46221;51.178;5.900;2022-08-05T06:00:57;3.38;;;2.03;;
50337;SDS011;46221;51.178;5.900;2022-08-05T06:03:37;4.32;;;1.80;;
50337;SDS011;46221;51.178;5.900;2022-08-05T06:06:24;3.95;;;1.83;;
50337;SDS011;46221;51.178;5.900;2022-08-05T06:08:53;4.55;;;2.40;;
50337;SDS011;46221;51.178;5.900;2022-08-05T06:11:19;5.72;;;1.70;;
50337;SDS011;46221;51.178;5.900;2022-08-05T06:13:46;3.53;;;1.65;;
50337;SDS011;46221;51.178;5.900;2022-08-05T06:16:18;3.47;;;1.95;;
50337;SDS011;46221;51.178;5.900;2022-08-05T06:18:57;4.28;;;1.70;;
50337;SDS011;46221;51.178;5.900;2022-08-05T06:21:27;4.38;;;1.80;;
50337;SDS011;46221;51.178;5.900;2022-08-05T06:24:03;3.80;;;1.80;;
50337;SDS011;46221;51.178;5.900;2022-08-05T06:26:31;4.07;;;1.80;;
50337;SDS011;46221;51.178;5.900;2022-08-05T06:29:00;3.88;;;1.90;;
50337;SDS011;46221;51.178;5.900;2022-08-05T06:31:31;4.72;;;1.80;;
50337;SDS011;46221;51.178;5.900;2022-08-05T06:33:58;7.13;;;2.80;;
50337;SDS011;46221;51.178;5.900;2022-08-05T06:36:34;4.07;;;2.15;;
50337;SDS011;46221;51.178;5.900;2022-08-05T06:39:20;2.83;;;1.80;;
50337;SDS011;46221;51.178;5.900;2022-08-05T06:41:52;3.90;;;1.80;;
50337;SDS011;46221;51.178;5.900;2022-08-05T06:44:18;3.03;;;1.65;;
50337;SDS011;46221;51.178;5.900;2022-08-05T06:46:47;5.05;;;1.75;;
50337;SDS011;46221;51.178;5.900;2022-08-05T06:49:16;7.30;;;2.10;;
50337;SDS011;46221;51.178;5.900;2022-08-05T06:51:43;3.00;;;1.70;;
50337;SDS011;46221;51.178;5.900;2022-08-05T06:54:10;4.00;;;1.75;;
50337;SDS011;46221;51.178;5.900;2022-08-05T06:56:43;5.25;;;2.42;;
50337;SDS011;46221;51.178;5.900;2022-08-05T06:59:20;5.07;;;1.73;;
50337;SDS011;46221;51.178;5.900;2022-08-05T07:01:47;6.00;;;1.98;;
50337;SDS011;46221;51.178;5.900;2022-08-05T07:04:18;4.40;;;1.60;;
50337;SDS011;46221;51.178;5.900;2022-08-05T07:06:44;5.70;;;1.85;;
50337;SDS011;46221;51.178;5.900;2022-08-05T07:09:15;4.75;;;2.17;;
50337;SDS011;46221;51.178;5.900;2022-08-05T07:11:44;5.32;;;2.33;;
50337;SDS011;46221;51.178;5.900;2022-08-05T07:14:17;3.97;;;2.10;;
50337;SDS011;46221;51.178;5.900;2022-08-05T07:17:02;5.20;;;2.40;;
50337;SDS011;46221;51.178;5.900;2022-08-05T07:22:35;5.32;;;2.08;;
50337;SDS011;46221;51.178;5.900;2022-08-05T07:25:02;5.43;;;2.17;;
50337;SDS011;46221;51.178;5.900;2022-08-05T07:27:49;5.70;;;2.20;;
50337;SDS011;46221;51.178;5.900;2022-08-05T07:30:27;6.47;;;2.10;;
50337;SDS011;46221;51.178;5.900;2022-08-05T07:33:02;5.43;;;2.03;;
50337;SDS011;46221;51.178;5.900;2022-08-05T07:35:34;5.20;;;2.40;;
50337;SDS011;46221;51.178;5.900;2022-08-05T07:38:20;5.45;;;1.80;;
50337;SDS011;46221;51.178;5.900;2022-08-05T07:41:03;6.55;;;2.15;;
50337;SDS011;46221;51.178;5.900;2022-08-05T07:43:50;4.85;;;2.08;;
50337;SDS011;46221;51.178;5.900;2022-08-05T07:46:17;5.05;;;2.25;;
50337;SDS011;46221;51.178;5.900;2022-08-05T07:48:50;4.00;;;2.05;;
50337;SDS011;46221;51.178;5.900;2022-08-05T07:51:30;5.10;;;1.85;;
50337;SDS011;46221;51.178;5.900;2022-08-05T07:54:03;4.43;;;1.92;;
50337;SDS011;46221;51.178;5.900;2022-08-05T07:56:30;5.10;;;1.88;;
50337;SDS011;46221;51.178;5.900;2022-08-05T08:04:17;5.05;;;2.05;;
50337;SDS011;46221;51.178;5.900;2022-08-05T08:07:02;6.20;;;2.00;;
50337;SDS011;46221;51.178;5.900;2022-08-05T08:09:32;6.63;;;1.90;;
50337;SDS011;46221;51.178;5.900;2022-08-05T08:11:58;5.72;;;1.90;;
50337;SDS011;46221;51.178;5.900;2022-08-05T08:14:36;4.10;;;2.13;;
50337;SDS011;46221;51.178;5.900;2022-08-05T08:17:06;4.47;;;1.88;;
50337;SDS011;46221;51.178;5.900;2022-08-05T08:19:41;5.28;;;2.30;;
50337;SDS011;46221;51.178;5.900;2022-08-05T08:22:27;4.03;;;1.80;;
50337;SDS011;46221;51.178;5.900;2022-08-05T08:24:54;5.57;;;2.30;;
50337;SDS011;46221;51.178;5.900;2022-08-05T08:27:28;3.92;;;1.90;;
50337;SDS011;46221;51.178;5.900;2022-08-05T08:30:10;5.75;;;2.22;;
50337;SDS011;46221;51.178;5.900;2022-08-05T08:32:56;6.05;;;2.50;;
50337;SDS011;46221;51.178;5.900;2022-08-05T08:35:27;5.93;;;2.25;;
50337;SDS011;46221;51.178;5.900;2022-08-05T08:38:00;5.50;;;2.03;;
50337;SDS011;46221;51.178;5.900;2022-08-05T08:40:27;7.70;;;2.47;;
50337;SDS011;46221;51.178;5.900;2022-08-05T08:42:53;5.05;;;2.22;;
50337;SDS011;46221;51.178;5.900;2022-08-05T08:45:22;5.55;;;1.95;;
50337;SDS011;46221;51.178;5.900;2022-08-05T08:47:54;6.35;;;2.20;;
50337;SDS011;46221;51.178;5.900;2022-08-05T08:50:39;4.47;;;2.47;;
50337;SDS011;46221;51.178;5.900;2022-08-05T08:53:26;4.38;;;2.50;;
50337;SDS011;46221;51.178;5.900;2022-08-05T08:55:54;6.13;;;2.40;;
50337;SDS011;46221;51.178;5.900;2022-08-05T08:58:30;4.60;;;2.20;;
50337;SDS011;46221;51.178;5.900;2022-08-05T09:01:12;5.90;;;2.42;;
50337;SDS011;46221;51.178;5.900;2022-08-05T09:03:44;6.50;;;2.63;;
50337;SDS011;46221;51.178;5.900;2022-08-05T09:06:12;5.57;;;2.40;;
50337;SDS011;46221;51.178;5.900;2022-08-05T09:08:45;5.30;;;2.60;;
50337;SDS011;46221;51.178;5.900;2022-08-05T09:11:11;7.13;;;2.90;;
50337;SDS011;46221;51.178;5.900;2022-08-05T09:13:39;4.43;;;2.10;;
50337;SDS011;46221;51.178;5.900;2022-08-05T09:16:26;5.57;;;2.60;;
50337;SDS011;46221;51.178;5.900;2022-08-05T09:18:52;6.10;;;2.90;;
50337;SDS011;46221;51.178;5.900;2022-08-05T09:21:20;6.45;;;3.00;;
50337;SDS011;46221;51.178;5.900;2022-08-05T09:24:09;4.90;;;2.95;;
50337;SDS011;46221;51.178;5.900;2022-08-05T09:26:40;5.75;;;2.60;;
50337;SDS011;46221;51.178;5.900;2022-08-05T09:29:09;5.80;;;3.05;;
50337;SDS011;46221;51.178;5.900;2022-08-05T09:31:48;9.07;;;3.33;;
50337;SDS011;46221;51.178;5.900;2022-08-05T09:34:49;5.75;;;2.33;;
50337;SDS011;46221;51.178;5.900;2022-08-05T09:37:16;4.32;;;2.10;;
50337;SDS011;46221;51.178;5.900;2022-08-05T09:40:03;4.50;;;2.28;;
50337;SDS011;46221;51.178;5.900;2022-08-05T09:42:37;4.18;;;2.83;;
50337;SDS011;46221;51.178;5.900;2022-08-05T09:45:04;7.22;;;3.38;;
50337;SDS011;46221;51.178;5.900;2022-08-05T09:47:51;8.10;;;3.20;;
50337;SDS011;46221;51.178;5.900;2022-08-05T09:50:32;5.18;;;3.40;;
50337;SDS011;46221;51.178;5.900;2022-08-05T09:53:09;4.97;;;2.70;;
50337;SDS011;46221;51.178;5.900;2022-08-05T09:55:52;5.35;;;3.25;;
50337;SDS011;46221;51.178;5.900;2022-08-05T09:58:24;6.35;;;3.60;;
50337;SDS011;46221;51.178;5.900;2022-08-05T10:00:58;7.70;;;3.45;;
50337;SDS011;46221;51.178;5.900;2022-08-05T10:03:25;5.25;;;2.60;;
50337;SDS011;46221;51.178;5.900;2022-08-05T10:06:11;5.90;;;2.70;;
50337;SDS011;46221;51.178;5.900;2022-08-05T10:08:41;5.82;;;3.33;;
50337;SDS011;46221;51.178;5.900;2022-08-05T10:11:12;5.78;;;2.35;;
50337;SDS011;46221;51.178;5.900;2022-08-05T10:13:39;5.63;;;2.75;;
50337;SDS011;46221;51.178;5.900;2022-08-05T10:16:26;5.47;;;3.20;;
50337;SDS011;46221;51.178;5.900;2022-08-05T10:18:53;5.43;;;3.20;;
50337;SDS011;46221;51.178;5.900;2022-08-05T10:21:22;5.28;;;2.88;;
50337;SDS011;46221;51.178;5.900;2022-08-05T10:23:48;5.75;;;3.00;;
50337;SDS011;46221;51.178;5.900;2022-08-05T10:26:25;5.30;;;2.58;;
50337;SDS011;46221;51.178;5.900;2022-08-05T10:28:59;6.53;;;2.90;;
50337;SDS011;46221;51.178;5.900;2022-08-05T10:31:25;4.82;;;2.80;;
50337;SDS011;46221;51.178;5.900;2022-08-05T10:34:12;8.95;;;3.05;;
50337;SDS011;46221;51.178;5.900;2022-08-05T10:36:40;5.65;;;3.22;;
50337;SDS011;46221;51.178;5.900;2022-08-05T10:39:13;6.65;;;3.58;;
50337;SDS011;46221;51.178;5.900;2022-08-05T10:42:03;8.52;;;3.38;;
50337;SDS011;46221;51.178;5.900;2022-08-05T10:44:36;8.38;;;2.92;;
50337;SDS011;46221;51.178;5.900;2022-08-05T10:47:10;6.35;;;2.63;;
50337;SDS011;46221;51.178;5.900;2022-08-05T10:50:07;7.73;;;2.93;;
50337;SDS011;46221;51.178;5.900;2022-08-05T10:52:56;7.70;;;2.60;;
50337;SDS011;46221;51.178;5.900;2022-08-05T10:55:25;5.07;;;2.58;;
50337;SDS011;46221;51.178;5.900;2022-08-05T10:58:05;8.10;;;4.80;;
50337;SDS011;46221;51.178;5.900;2022-08-05T11:00:32;4.75;;;2.72;;
50337;SDS011;46221;51.178;5.900;2022-08-05T11:03:10;8.77;;;4.20;;
50337;SDS011;46221;51.178;5.900;2022-08-05T11:06:02;5.82;;;2.97;;
50337;SDS011;46221;51.178;5.900;2022-08-05T11:08:29;8.10;;;3.22;;
50337;SDS011;46221;51.178;5.900;2022-08-05T11:13:58;6.93;;;2.40;;
50337;SDS011;46221;51.178;5.900;2022-08-05T11:16:26;4.00;;;2.10;;
50337;SDS011;46221;51.178;5.900;2022-08-05T11:19:28;4.25;;;2.25;;
50337;SDS011;46221;51.178;5.900;2022-08-05T11:33:33;5.93;;;1.95;;
50337;SDS011;46221;51.178;5.900;2022-08-05T11:36:14;4.07;;;1.70;;
50337;SDS011;46221;51.178;5.900;2022-08-05T11:38:59;5.85;;;2.30;;
50337;SDS011;46221;51.178;5.900;2022-08-05T11:41:26;3.75;;;1.70;;
50337;SDS011;46221;51.178;5.900;2022-08-05T11:44:13;5.82;;;3.08;;
50337;SDS011;46221;51.178;5.900;2022-08-05T11:47:01;3.90;;;2.00;;
50337;SDS011;46221;51.178;5.900;2022-08-05T11:49:41;5.78;;;2.30;;
50337;SDS011;46221;51.178;5.900;2022-08-05T11:52:21;7.50;;;2.20;;
50337;SDS011;46221;51.178;5.900;2022-08-05T11:54:54;6.35;;;2.70;;
50337;SDS011;46221;51.178;5.900;2022-08-05T11:57:20;9.85;;;2.25;;
50337;SDS011;46221;51.178;5.900;2022-08-05T11:59:55;8.97;;;2.00;;
50337;SDS011;46221;51.178;5.900;2022-08-05T12:02:26;8.00;;;2.28;;
50337;SDS011;46221;51.178;5.900;2022-08-05T12:04:58;6.10;;;2.10;;
50337;SDS011;46221;51.178;5.900;2022-08-05T12:07:25;6.72;;;2.03;;
50337;SDS011;46221;51.178;5.900;2022-08-05T12:10:11;9.05;;;2.40;;
50337;SDS011;46221;51.178;5.900;2022-08-05T12:12:38;7.57;;;2.50;;
50337;SDS011;46221;51.178;5.900;2022-08-05T12:15:23;6.88;;;2.00;;
50337;SDS011;46221;51.178;5.900;2022-08-05T12:18:03;8.30;;;2.35;;
50337;SDS011;46221;51.178;5.900;2022-08-05T12:20:36;7.63;;;1.60;;
50337;SDS011;46221;51.178;5.900;2022-08-05T12:23:10;6.22;;;1.70;;
50337;SDS011;46221;51.178;5.900;2022-08-05T12:25:58;7.50;;;1.98;;
50337;SDS011;46221;51.178;5.900;2022-08-05T12:28:32;4.97;;;1.98;;
50337;SDS011;46221;51.178;5.900;2022-08-05T12:30:59;9.30;;;1.90;;
50337;SDS011;46221;51.178;5.900;2022-08-05T12:33:27;12.30;;;1.98;;
50337;SDS011;46221;51.178;5.900;2022-08-05T12:36:02;10.73;;;1.80;;
50337;SDS011;46221;51.178;5.900;2022-08-05T12:38:35;7.55;;;2.00;;
50337;SDS011;46221;51.178;5.900;2022-08-05T12:41:02;9.43;;;2.65;;
50337;SDS011;46221;51.178;5.900;2022-08-05T12:43:50;11.23;;;2.20;;
50337;SDS011;46221;51.178;5.900;2022-08-05T12:46:25;7.25;;;1.75;;
50337;SDS011;46221;51.178;5.900;2022-08-05T12:51:24;7.85;;;1.83;;
50337;SDS011;46221;51.178;5.900;2022-08-05T12:54:28;12.48;;;2.20;;
50337;SDS011;46221;51.178;5.900;2022-08-05T12:56:59;10.18;;;2.40;;
50337;SDS011;46221;51.178;5.900;2022-08-05T12:59:33;10.45;;;1.80;;
50337;SDS011;46221;51.178;5.900;2022-08-05T13:02:27;4.85;;;1.77;;
50337;SDS011;46221;51.178;5.900;2022-08-05T13:04:55;9.45;;;1.70;;
50337;SDS011;46221;51.178;5.900;2022-08-05T13:07:24;6.70;;;1.27;;
50337;SDS011;46221;51.178;5.900;2022-08-05T13:10:11;14.23;;;2.22;;
50337;SDS011;46221;51.178;5.900;2022-08-05T13:12:39;7.85;;;1.63;;
50337;SDS011;46221;51.178;5.900;2022-08-05T13:15:17;13.35;;;2.00;;
50337;SDS011;46221;51.178;5.900;2022-08-05T13:18:01;13.98;;;2.75;;
50337;SDS011;46221;51.178;5.900;2022-08-05T13:20:34;11.30;;;2.00;;
50337;SDS011;46221;51.178;5.900;2022-08-05T13:23:05;13.65;;;2.50;;
50337;SDS011;46221;51.178;5.900;2022-08-05T13:25:32;9.50;;;1.77;;
50337;SDS011;46221;51.178;5.900;2022-08-05T13:28:20;10.65;;;1.98;;
50337;SDS011;46221;51.178;5.900;2022-08-05T13:30:47;12.35;;;1.65;;
50337;SDS011;46221;51.178;5.900;2022-08-05T13:33:16;10.10;;;1.83;;
50337;SDS011;46221;51.178;5.900;2022-08-05T13:36:02;9.25;;;1.70;;
50337;SDS011;46221;51.178;5.900;2022-08-05T13:38:30;11.85;;;2.15;;
50337;SDS011;46221;51.178;5.900;2022-08-05T13:41:03;13.15;;;1.75;;
50337;SDS011;46221;51.178;5.900;2022-08-05T13:43:31;9.32;;;1.63;;
50337;SDS011;46221;51.178;5.900;2022-08-05T13:46:17;11.35;;;1.40;;
50337;SDS011;46221;51.178;5.900;2022-08-05T13:49:04;12.82;;;1.58;;
50337;SDS011;46221;51.178;5.900;2022-08-05T13:51:36;7.90;;;1.67;;
50337;SDS011;46221;51.178;5.900;2022-08-05T13:54:09;11.63;;;1.75;;
50337;SDS011;46221;51.178;5.900;2022-08-05T13:56:38;7.60;;;1.42;;
50337;SDS011;46221;51.178;5.900;2022-08-05T13:59:15;5.03;;;1.42;;
50337;SDS011;46221;51.178;5.900;2022-08-05T14:01:46;7.63;;;1.92;;
50337;SDS011;46221;51.178;5.900;2022-08-05T14:04:23;10.60;;;1.52;;
50337;SDS011;46221;51.178;5.900;2022-08-05T14:07:15;9.43;;;1.38;;
50337;SDS011;46221;51.178;5.900;2022-08-05T14:10:01;8.23;;;1.40;;
50337;SDS011;46221;51.178;5.900;2022-08-05T14:12:29;13.32;;;2.42;;
50337;SDS011;46221;51.178;5.900;2022-08-05T14:14:58;8.88;;;1.88;;
50337;SDS011;46221;51.178;5.900;2022-08-05T14:17:24;6.75;;;1.67;;
50337;SDS011;46221;51.178;5.900;2022-08-05T14:19:53;9.20;;;2.00;;
50337;SDS011;46221;51.178;5.900;2022-08-05T14:22:27;8.25;;;1.88;;
50337;SDS011;46221;51.178;5.900;2022-08-05T14:24:55;9.07;;;1.98;;
50337;SDS011;46221;51.178;5.900;2022-08-05T14:27:22;12.52;;;2.95;;
50337;SDS011;46221;51.178;5.900;2022-08-05T14:29:56;15.05;;;2.55;;
50337;SDS011;46221;51.178;5.900;2022-08-05T14:32:24;13.57;;;2.42;;
50337;SDS011;46221;51.178;5.900;2022-08-05T14:34:52;14.63;;;2.38;;
50337;SDS011;46221;51.178;5.900;2022-08-05T14:37:22;16.13;;;2.33;;
50337;SDS011;46221;51.178;5.900;2022-08-05T14:40:09;8.50;;;1.70;;
50337;SDS011;46221;51.178;5.900;2022-08-05T14:42:39;11.07;;;2.50;;
50337;SDS011;46221;51.178;5.900;2022-08-05T14:45:07;8.65;;;2.08;;
50337;SDS011;46221;51.178;5.900;2022-08-05T14:47:34;12.60;;;2.20;;
50337;SDS011;46221;51.178;5.900;2022-08-05T14:50:21;13.25;;;2.47;;
50337;SDS011;46221;51.178;5.900;2022-08-05T14:52:50;14.70;;;2.08;;
50337;SDS011;46221;51.178;5.900;2022-08-05T14:55:24;10.73;;;2.63;;
50337;SDS011;46221;51.178;5.900;2022-08-05T14:57:50;9.50;;;2.28;;
50337;SDS011;46221;51.178;5.900;2022-08-05T15:00:21;9.25;;;1.75;;
50337;SDS011;46221;51.178;5.900;2022-08-05T15:02:53;7.22;;;1.50;;
50337;SDS011;46221;51.178;5.900;2022-08-05T15:05:20;11.43;;;1.48;;
50337;SDS011;46221;51.178;5.900;2022-08-05T15:07:54;7.47;;;1.40;;
50337;SDS011;46221;51.178;5.900;2022-08-05T15:10:41;9.50;;;1.60;;
50337;SDS011;46221;51.178;5.900;2022-08-05T15:13:11;7.20;;;1.55;;
50337;SDS011;46221;51.178;5.900;2022-08-05T15:15:37;7.97;;;1.60;;
50337;SDS011;46221;51.178;5.900;2022-08-05T15:18:20;6.57;;;1.13;;
50337;SDS011;46221;51.178;5.900;2022-08-05T15:20:46;9.40;;;1.55;;
50337;SDS011;46221;51.178;5.900;2022-08-05T15:23:13;10.82;;;1.45;;
50337;SDS011;46221;51.178;5.900;2022-08-05T15:25:39;7.03;;;1.40;;
50337;SDS011;46221;51.178;5.900;2022-08-05T15:28:19;6.38;;;1.40;;
50337;SDS011;46221;51.178;5.900;2022-08-05T15:30:49;6.45;;;1.00;;
50337;SDS011;46221;51.178;5.900;2022-08-05T15:33:18;6.20;;;1.25;;
50337;SDS011;46221;51.178;5.900;2022-08-05T15:36:04;8.13;;;1.15;;
50337;SDS011;46221;51.178;5.900;2022-08-05T15:38:42;3.60;;;0.70;;
50337;SDS011;46221;51.178;5.900;2022-08-05T15:41:08;3.05;;;0.88;;
50337;SDS011;46221;51.178;5.900;2022-08-05T15:43:49;3.38;;;0.80;;
50337;SDS011;46221;51.178;5.900;2022-08-05T15:46:18;6.20;;;1.10;;
50337;SDS011;46221;51.178;5.900;2022-08-05T15:48:44;3.80;;;0.73;;
50337;SDS011;46221;51.178;5.900;2022-08-05T15:51:24;2.13;;;0.73;;
50337;SDS011;46221;51.178;5.900;2022-08-05T15:54:11;3.17;;;0.60;;
50337;SDS011;46221;51.178;5.900;2022-08-05T15:56:40;4.35;;;0.85;;
50337;SDS011;46221;51.178;5.900;2022-08-05T15:59:08;2.42;;;0.52;;
50337;SDS011;46221;51.178;5.900;2022-08-05T16:01:45;2.13;;;0.93;;
50337;SDS011;46221;51.178;5.900;2022-08-05T16:04:19;3.70;;;0.90;;